• Join FlightAware (Why Join?)
  • Login
  • US Flag 
03:35AM EDT


 

Airport Tracker/Info


-or-


 

Live Flight TrackerFlight Track Log ✈ BJS262 ✈ 17-Oct-2013 ✈ KMDW - KORD

Flight Track Log - Related Links

Times and Time Zones

All times are in EDT time to prevent confusion due to time zone crossing. See the BJS262 flight status page for this flight to view local times or setup timezone preferences in your user account.

Time Position Orientation Groundspeed Altitude Reporting Facility
EDT Latitude Longitude Course Direction KTS MPH feet Rate Location/Type
05:29PM 41.8058 -87.7711 84° East 174 200 2,700  Level Chicago Center
05:34PM 41.7760 -87.2470 84° East 100 115 16,600 2,760 Climbing FlightAware
05:35PM 41.8968 -86.1448 84° East  Level Estimated
05:35PM 41.7730 -87.2090 96° East 352 405 17,900  Level FlightAware
05:35PM 41.7670 -87.1240 95° East 376 433 20,200 2,760 Climbing FlightAware
05:36PM 41.7630 -87.0040 93° East 439 505 21,600 1,320 Climbing FlightAware
05:37PM 41.7630 -86.9040 90° East 439 505 22,200 420 Climbing FlightAware
05:37PM 41.7610 -86.8180 92° East 439 505 22,200 4,080 Level FlightAware
05:38PM 41.7730 -86.6490 85° East 487 560 28,200 5,340 Climbing FlightAware
05:39PM 41.7680 -86.5260 93° East 482 555 29,800 2,100 Climbing FlightAware
05:40PM 41.7690 -86.3840 89° East 517 595 31,000 1,740 Climbing FlightAware
05:40PM 41.7700 -86.3560 87° East 509 586 31,400  Climbing FlightAware
05:40PM 41.7850 -86.2260 81° East 475 547 31,000 2,400 Descending FlightAware
05:41PM 41.7980 -86.1500 77° East 505 581 34,000 3,660 Climbing FlightAware
05:41PM 41.8120 -86.0560 79° East 507 583 34,400 -4,020 Climbing FlightAware
05:42PM 41.8200 -86.0140 76° East 512 589 31,000 1,860 Descending FlightAware
05:42PM 41.8390 -85.9100 76° East 515 593 36,000 4,560 Climbing FlightAware
05:43PM 41.8590 -85.7860 78° East 508 585 36,700 1,380 Climbing FlightAware
05:43PM 41.8740 -85.6920 78° East 529 609 37,600 1,500 Climbing FlightAware
05:43PM 41.8780 -85.6700 76° East 529 609 37,600  Level FlightAware
05:44PM 41.8830 -85.6390 78° East 511 588 37,600  Level FlightAware
05:44PM 41.8880 -85.6160 74° East 511 588 37,600  Level FlightAware
05:44PM 41.8920 -85.5160 87° East 511 588 37,600  Level FlightAware
05:45PM 41.8960 -85.4190 87° East 511 588 37,600  Level FlightAware
05:46PM 41.9000 -85.3200 87° East 511 588 37,600  Level FlightAware
05:46PM 41.9030 -85.2230 88° East 511 588 37,600  Level FlightAware
05:47PM 41.9070 -85.1260 87° East 511 588 37,600  Level FlightAware
05:47PM 41.9110 -85.0280 87° East 511 588 37,600  Level FlightAware
05:48PM 41.9150 -84.9310 87° East 511 588 37,600  Level FlightAware
05:49PM 41.9180 -84.8340 88° East 511 588 37,600 2,820 Level FlightAware
05:49PM 41.9550 -84.5950 78° East 511 588 41,000 2,880 Climbing FlightAware
05:50PM 41.9470 -84.4940 96° East 496 571 41,000  Level FlightAware
05:50PM 41.9470 -84.3940 90° East 496 571 41,000  Level FlightAware
05:51PM 41.9470 -84.3000 90° East 496 571 41,000  Level FlightAware
05:52PM 41.9470 -84.2050 90° East 496 571 41,000  Level FlightAware
05:52PM 41.9470 -84.1060 90° East 496 571 41,000  Level FlightAware
05:53PM 41.9470 -84.0080 90° East 496 571 41,000  Level FlightAware
05:53PM 41.9470 -83.9140 90° East 496 571 41,000  Level FlightAware
05:54PM 41.9470 -83.8200 90° East 496 571 41,000  Level FlightAware
05:55PM 41.9470 -83.6990 90° East 496 571 41,000  Level FlightAware
05:55PM 41.9470 -83.6050 90° East 496 571 41,000  Level FlightAware
05:56PM 41.9470 -83.5100 90° East 496 571 41,000  Level FlightAware
05:57PM 41.9470 -83.4160 90° East 496 571 41,000  Level FlightAware
05:57PM 41.9470 -83.3210 90° East 496 571 41,000  Level FlightAware
05:58PM 41.9470 -83.2270 90° East 496 571 41,000  Level FlightAware
05:58PM 41.9470 -83.1300 90° East 496 571 41,000  Level FlightAware
05:59PM 41.9470 -83.0330 90° East 496 571 41,000  Level FlightAware
06:00PM 41.9470 -82.9380 90° East 496 571 41,000  Level FlightAware
06:01PM 42.1472 -82.3669 90° East 514 592 41,000  Level Cleveland Center
06:02PM 42.1633 -82.1753 83° East 517 595 41,000  Level Cleveland Center
06:03PM 42.1814 -81.9689 83° East 514 592 41,000  Level Cleveland Center
06:04PM 42.1981 -81.7744 83° East 515 593 41,000  Level Cleveland Center
06:05PM 42.2183 -81.5475 83° East 516 594 41,000  Level Cleveland Center
06:06PM 42.2336 -81.3542 84° East 514 592 41,000  Level Cleveland Center
06:07PM 42.2506 -81.1594 83° East 516 594 41,000  Level Cleveland Center
06:08PM 42.2658 -80.9636 84° East 518 596 41,000  Level Cleveland Center
06:09PM 42.2814 -80.7692 84° East 518 596 41,000  Level Cleveland Center
06:10PM 42.2978 -80.5750 83° East 514 592 41,000  Level Cleveland Center
06:11PM 42.3117 -80.3800 84° East 517 595 41,000  Level Cleveland Center
06:12PM 42.3272 -80.1819 84° East 520 598 41,000  Level Cleveland Center
06:13PM 42.3433 -79.9514 85° East 524 603 41,000  Level Cleveland Center
06:14PM 42.3578 -79.7531 84° East 524 603 41,000  Level Cleveland Center
06:15PM 42.3703 -79.5575 85° East 525 604 41,000 -60 Level Cleveland Center
06:16PM 42.3836 -79.3600 85° East 528 608 40,900  Descending Cleveland Center
06:17PM 42.3967 -79.1628 85° East 529 609 41,000  Climbing Cleveland Center
06:19PM 42.4097 -78.9700 85° East 520 598 41,000 -180 Level Cleveland Center
06:20PM 42.4233 -78.7533 85° East 514 592 40,700 -660 Descending Cleveland Center
06:21PM 42.4336 -78.5547 86° East 523 602 39,700 -840 Descending Cleveland Center
06:22PM 42.4456 -78.3542 85° East 534 615 39,000 -360 Descending Cleveland Center
06:23PM 42.4569 -78.1542 86° East 535 616 39,000  Level Cleveland Center
06:24PM 42.4697 -77.9178 86° East 532 612 39,000  Level Cleveland Center
06:25PM 42.4792 -77.7183 86° East 529 609 39,000 -60 Level Cleveland Center
06:26PM 42.4906 -77.5189 86° East 534 615 38,900  Descending Cleveland Center
06:27PM 42.4992 -77.3308 86° East 536 617 39,000  Climbing Cleveland Center
06:28PM 42.5103 -77.0947 86° East 530 610 39,000 -360 Level Cleveland Center
06:29PM 42.5336 -76.9006 81° East 537 618 38,300 -1,020 Descending Cleveland Center
06:30PM 42.5594 -76.7789 74° East 539 620 37,300 -1,800 Descending Boston Center
06:31PM 42.5981 -76.5756 75° East 549 632 35,300 -2,040 Descending Boston Center
06:32PM 42.6306 -76.3717 78° East 555 639 33,300 -1,200 Descending Boston Center
06:33PM 42.6019 -76.1694 101° East 510 587 32,900 -420 Descending Boston Center
06:34PM 42.5744 -75.9844 101° East 505 581 32,500 -1,020 Descending Boston Center
06:35PM 42.5447 -75.7939 102° East 505 581 30,900 -1,620 Descending Boston Center
06:36PM 42.5169 -75.6008 101° East 510 587 29,300 -1,680 Descending Boston Center
06:37PM 42.4922 -75.4306 101° East 511 588 27,700 -1,620 Descending Boston Center
06:38PM 42.4678 -75.2464 100° East 505 581 26,100 -1,620 Descending Boston Center
06:39PM 42.4703 -75.0550 89° East 505 581 24,500 -1,620 Descending Boston Center
06:40PM 42.4744 -74.8639 88° East 505 581 22,900 -1,620 Descending Boston Center
06:41PM 42.4783 -74.6781 88° East 494 568 21,300 -1,620 Descending Boston Center
06:42PM 42.4817 -74.5036 88° East 482 555 19,700 -1,740 Descending Boston Center
06:43PM 42.4831 -74.3067 89° East 473 544 17,900 -1,620 Descending Boston Center
06:44PM 42.4775 -74.1347 92° East 462 532 16,500 -1,440 Descending Boston Center
06:45PM 42.4442 -73.9764 106° East 441 507 15,100 -840 Descending Boston Center
06:46PM 42.4128 -73.8153 105° East 434 499 14,900 -660 Descending Boston Center
06:47PM 42.3814 -73.6600 105° East 434 499 13,900 -960 Descending Boston Center
06:47PM 42.3675 -73.5867 104° East 422 486 13,500 -960 Descending Boston Center
06:48PM 42.3456 -73.4822 106° East 410 472 12,800 -960 Descending Boston Center
06:49PM 42.3217 -73.3611 105° East 405 466 12,100 -960 Descending Boston Center
06:50PM 42.2956 -73.2203 104° East 405 466 11,100 -1,260 Descending Boston Center
06:50PM 42.2833 -73.1669 107° East 366 421 10,400 -1,800 Descending Boston Center
06:51PM 42.2611 -73.0517 105° East 301 346 8,600 -1,740 Descending Boston Center
06:52PM 42.2431 -72.9561 104° East 288 331 7,100 -840 Descending Boston Center
06:53PM 42.2206 -72.8408 105° East 283 326 7,000  Descending Boston Center
06:54PM 42.2000 -72.7483 107° East 288 331 7,100 -420 Climbing Boston Center
06:55PM 42.1753 -72.6389 107° East 292 336 6,300 -1,380 Descending Boston Center
06:56PM 42.1253 -72.5606 131° Southeast 265 305 4,300 -1,980 Descending Boston Center
06:57PM 42.0647 -72.5519 174° South 255 293 2,600 -1,140 Descending Boston Center
06:58PM 42.0086 -72.5939 209° Southwest 182 209 2,100 -720 Descending Boston Center
06:59PM 41.9814 -72.6272 222° Southwest 143 165 1,200 -900 Descending Boston Center
07:00PM 41.9522 -72.6661 225° Southwest 135 155 400 -840 Descending Boston Center